MUCF/CFG METAR and TAF weather

Enter ICAO airport designator
Station Type Date Time Source
MUCF METAR 2019/02/20 16:50 UTC NOAA

MUCF 201650Z 24006KT 220V310 9999 FEW020 30/18 Q1018


Station Type Date Time Source
MUCF Decoded METAR 2019/02/20 16:50 UTC NOAA

Cienfuegos, Las Villas, Cuba (MUCF) 22-09N 080-24W 39M
Feb 20, 2019 - 11:50 AM EST / 2019.02.20 1650 UTC
Wind: from the WSW (240 degrees) at 7 MPH (6 KT) (direction variable):0
Visibility: greater than 7 mile(s):0
Sky conditions: mostly clear
Temperature: 86 F (30 C)
Dew Point: 64 F (18 C)
Relative Humidity: 48%
Pressure (altimeter): 30.06 in. Hg (1018 hPa)
ob: MUCF 201650Z 24006KT 220V310 9999 FEW020 30/18 Q1018
cycle: 17

Station Type Date Time Source
MUCF TAF 2019/02/20 18:03 UTC NOAA

MUCF 201700Z 2018/2106 23008KT 9000 SCT020
BECMG 2101/2103 VRB03KT


Example: see airport list